Time;durP1;ratioP1;P1;durP2;ratioP2;P2;SDS_P1;SDS_P2;PMS_P1;PMS_P2;Temp;Humidity;BMP_temperature;BMP_pressure;BME280_temperature;BME280_humidity;BME280_pressure;Samples;Min_cycle;Max_cycle;Signal;HPM_P1;HPM_P2
2024/04/18 00:01:50;;;;;;;5.93;3.70;;;;;;;;;;5249651;27;20020;-84
2024/04/18 00:04:16;;;;;;;8.38;3.72;;;;;;;;;;5297809;26;20028;-82
2024/04/18 00:06:42;;;;;;;6.70;3.72;;;;;;;;;;5229970;27;20081;-84
2024/04/18 00:09:08;;;;;;;8.88;3.63;;;;;;;;;;5258173;27;20489;-83
2024/04/18 00:11:34;;;;;;;7.63;3.50;;;;;;;;;;5264971;27;20010;-83
2024/04/18 00:14:08;;;;;;;7.57;3.50;;;;;;;;;;5260372;26;20080;-82
2024/04/18 00:16:39;;;;;;;5.07;3.15;;;;;;;;;;5291465;27;20009;-81
2024/04/18 00:19:16;;;;;;;7.13;4.18;;;;;;;;;;5236613;27;20010;-83
2024/04/18 00:21:58;;;;;;;7.90;3.60;;;;;;;;;;5319099;27;20014;-82
2024/04/18 00:24:31;;;;;;;9.40;3.40;;;;;;;;;;5263627;27;20014;-81
2024/04/18 00:26:56;;;;;;;6.80;3.72;;;;;;;;;;5289823;27;20013;-82
2024/04/18 00:29:37;;;;;;;5.72;3.47;;;;;;;;;;5274999;27;20010;-82
2024/04/18 00:32:08;;;;;;;5.63;3.25;;;;;;;;;;5252913;27;20014;-82
2024/04/18 00:34:34;;;;;;;6.80;3.30;;;;;;;;;;5257512;27;20017;-83
2024/04/18 00:36:59;;;;;;;10.13;3.53;;;;;;;;;;5293789;27;20473;-82
2024/04/18 00:39:48;;;;;;;7.55;3.53;;;;;;;;;;5331410;21;20001;-78
2024/04/18 00:42:33;;;;;;;8.38;3.75;;;;;;;;;;5301709;26;20018;-79
2024/04/18 00:45:03;;;;;;;7.05;3.58;;;;;;;;;;5265485;27;20017;-80
2024/04/18 00:47:42;;;;;;;6.40;3.80;;;;;;;;;;5288508;27;20044;-81
2024/04/18 00:50:09;;;;;;;7.38;3.40;;;;;;;;;;5272075;27;20626;-78
2024/04/18 00:52:38;;;;;;;10.02;3.55;;;;;;;;;;5275697;27;20021;-79
2024/04/18 00:55:05;;;;;;;6.88;3.88;;;;;;;;;;5271676;27;20010;-78
2024/04/18 00:57:34;;;;;;;7.90;3.33;;;;;;;;;;5211075;27;20065;-80
2024/04/18 01:00:05;;;;;;;9.63;3.65;;;;;;;;;;5266533;27;20001;-79
2024/04/18 01:02:50;;;;;;;7.72;3.75;;;;;;;;;;5220726;27;20043;-80
2024/04/18 01:05:32;;;;;;;7.60;3.65;;;;;;;;;;5282880;27;20006;-79
2024/04/18 01:07:57;;;;;;;9.15;4.10;;;;;;;;;;5280432;27;20532;-80
2024/04/18 01:10:23;;;;;;;7.63;3.70;;;;;;;;;;5229451;27;19999;-80
2024/04/18 01:13:15;;;;;;;5.38;3.38;;;;;;;;;;5273693;27;20018;-78
2024/04/18 01:16:00;;;;;;;8.90;3.80;;;;;;;;;;5254562;27;20008;-80
2024/04/18 01:18:26;;;;;;;9.85;3.80;;;;;;;;;;5271808;27;20006;-78
2024/04/18 01:21:12;;;;;;;6.80;3.83;;;;;;;;;;5263059;27;20015;-79
2024/04/18 01:23:38;;;;;;;8.50;3.90;;;;;;;;;;5227905;27;20334;-78
2024/04/18 01:26:03;;;;;;;9.35;4.20;;;;;;;;;;5229250;27;21173;-79
2024/04/18 01:28:29;;;;;;;10.45;4.00;;;;;;;;;;5283870;27;20006;-80
2024/04/18 01:30:57;;;;;;;8.63;3.97;;;;;;;;;;5232133;27;20073;-80
2024/04/18 01:33:23;;;;;;;7.25;3.90;;;;;;;;;;5255974;27;20018;-80
2024/04/18 01:35:50;;;;;;;8.82;4.18;;;;;;;;;;5251104;27;20017;-79
2024/04/18 01:38:18;;;;;;;8.05;4.25;;;;;;;;;;5280237;27;20401;-80
2024/04/18 01:40:44;;;;;;;7.28;4.10;;;;;;;;;;5281325;27;20040;-81
2024/04/18 01:43:28;;;;;;;7.07;3.72;;;;;;;;;;5288817;27;20020;-79
2024/04/18 01:45:57;;;;;;;9.00;4.50;;;;;;;;;;5268045;27;20009;-78
2024/04/18 01:48:22;;;;;;;8.45;4.03;;;;;;;;;;5260095;27;20037;-79
2024/04/18 01:51:06;;;;;;;6.28;3.50;;;;;;;;;;5281782;27;20002;-78
2024/04/18 01:53:32;;;;;;;7.53;4.28;;;;;;;;;;5283664;27;20575;-78
2024/04/18 01:55:58;;;;;;;7.93;4.15;;;;;;;;;;5271980;26;20009;-79
2024/04/18 01:58:43;;;;;;;11.23;3.78;;;;;;;;;;5265800;26;20005;-79
2024/04/18 02:01:09;;;;;;;8.57;4.35;;;;;;;;;;5261837;27;20028;-79
2024/04/18 02:03:34;;;;;;;7.10;4.30;;;;;;;;;;5286051;27;20238;-80
2024/04/18 02:06:12;;;;;;;6.32;3.92;;;;;;;;;;5255327;26;20001;-80
2024/04/18 02:08:47;;;;;;;9.73;4.93;;;;;;;;;;5222223;27;20034;-80
2024/04/18 02:11:31;;;;;;;10.23;4.40;;;;;;;;;;5260536;27;20021;-81
2024/04/18 02:14:29;;;;;;;8.57;4.18;;;;;;;;;;5261614;27;20453;-79
2024/04/18 02:16:55;;;;;;;6.57;3.97;;;;;;;;;;5248522;27;20010;-78
2024/04/18 02:19:29;;;;;;;6.82;4.38;;;;;;;;;;5286584;27;20572;-79
2024/04/18 02:22:14;;;;;;;7.25;4.70;;;;;;;;;;5316065;26;20016;-79
2024/04/18 02:25:00;;;;;;;8.32;3.45;;;;;;;;;;5264384;26;20010;-79
2024/04/18 02:27:25;;;;;;;5.97;3.60;;;;;;;;;;5227761;26;20345;-80
2024/04/18 02:29:51;;;;;;;6.43;3.38;;;;;;;;;;5256420;27;20023;-80
2024/04/18 02:32:36;;;;;;;5.85;3.10;;;;;;;;;;5255330;26;20017;-79
2024/04/18 02:35:12;;;;;;;5.63;3.15;;;;;;;;;;5287619;26;20014;-79
2024/04/18 02:37:38;;;;;;;5.00;3.30;;;;;;;;;;5290342;26;20363;-79
2024/04/18 02:40:04;;;;;;;7.80;2.90;;;;;;;;;;5277791;27;20006;-80
2024/04/18 02:42:37;;;;;;;4.68;2.83;;;;;;;;;;5281139;27;20016;-78
2024/04/18 02:45:03;;;;;;;4.93;2.60;;;;;;;;;;5265021;26;20395;-79
2024/04/18 02:47:49;;;;;;;7.72;2.83;;;;;;;;;;5264217;27;20002;-79
2024/04/18 02:50:35;;;;;;;7.13;2.60;;;;;;;;;;5261593;27;20044;-79
2024/04/18 02:53:00;;;;;;;5.53;2.50;;;;;;;;;;5250959;27;20005;-79
2024/04/18 02:55:26;;;;;;;5.32;2.40;;;;;;;;;;5286898;27;19997;-79
2024/04/18 02:57:55;;;;;;;8.75;2.55;;;;;;;;;;5267236;27;20060;-79
2024/04/18 03:00:21;;;;;;;7.45;2.60;;;;;;;;;;5243744;26;20017;-80
2024/04/18 03:03:06;;;;;;;5.53;2.13;;;;;;;;;;5289823;27;19994;-80
2024/04/18 03:05:32;;;;;;;2.78;1.70;;;;;;;;;;5303187;27;20020;-80
2024/04/18 03:07:58;;;;;;;4.55;2.00;;;;;;;;;;5313893;26;20018;-80
2024/04/18 03:10:49;;;;;;;4.07;1.92;;;;;;;;;;5284079;27;20037;-80
2024/04/18 03:13:35;;;;;;;3.40;1.75;;;;;;;;;;5285188;26;20005;-80
2024/04/18 03:16:21;;;;;;;3.60;1.70;;;;;;;;;;5294275;27;20349;-78
2024/04/18 03:18:47;;;;;;;4.18;2.22;;;;;;;;;;5260845;27;20007;-78
2024/04/18 03:21:15;;;;;;;4.60;2.22;;;;;;;;;;5241120;26;20361;-77
2024/04/18 03:23:40;;;;;;;4.53;1.88;;;;;;;;;;5244457;26;20019;-80
2024/04/18 03:26:06;;;;;;;5.22;2.15;;;;;;;;;;5292938;26;19996;-78
2024/04/18 03:28:32;;;;;;;5.38;2.75;;;;;;;;;;5257328;26;20021;-77
2024/04/18 03:31:02;;;;;;;4.85;2.10;;;;;;;;;;5296191;26;20049;-77
2024/04/18 03:33:27;;;;;;;;;;;;;;;;;;5293973;27;20003;-76
2024/04/18 03:35:53;;;;;;;3.78;1.88;;;;;;;;;;5262963;26;19973;-80
2024/04/18 03:38:19;;;;;;;6.40;2.15;;;;;;;;;;5297837;26;20020;-79
2024/04/18 03:40:53;;;;;;;7.63;3.83;;;;;;;;;;5267449;27;20049;-80
2024/04/18 03:43:19;;;;;;;5.38;2.08;;;;;;;;;;5259389;27;20013;-80
2024/04/18 03:45:44;;;;;;;4.32;1.83;;;;;;;;;;5244733;27;20436;-78
2024/04/18 03:48:25;;;;;;;6.25;2.05;;;;;;;;;;5264114;27;20005;-80
2024/04/18 03:50:51;;;;;;;5.22;2.00;;;;;;;;;;5288290;27;20035;-78
2024/04/18 03:53:21;;;;;;;6.15;2.13;;;;;;;;;;5259988;26;20029;-80
2024/04/18 03:56:07;;;;;;;4.90;1.90;;;;;;;;;;5290906;27;20060;-80
2024/04/18 03:58:33;;;;;;;4.60;1.83;;;;;;;;;;5263068;27;20009;-78
2024/04/18 04:00:58;;;;;;;3.85;1.95;;;;;;;;;;5227915;26;20003;-79
2024/04/18 04:03:24;;;;;;;4.25;1.95;;;;;;;;;;5254285;26;20486;-80
2024/04/18 04:05:50;;;;;;;5.05;1.90;;;;;;;;;;5260000;27;20009;-79
2024/04/18 04:08:15;;;;;;;3.13;1.67;;;;;;;;;;5258481;27;20013;-78
2024/04/18 04:10:41;;;;;;;4.03;1.60;;;;;;;;;;5261062;27;20029;-80
2024/04/18 04:13:07;;;;;;;3.90;1.80;;;;;;;;;;5287788;27;20021;-78
2024/04/18 04:15:46;;;;;;;4.82;1.65;;;;;;;;;;5290506;27;20002;-80
2024/04/18 04:18:31;;;;;;;9.65;1.65;;;;;;;;;;5306302;27;20052;-79
2024/04/18 04:21:16;;;;;;;3.65;1.90;;;;;;;;;;5264436;26;20016;-79
2024/04/18 04:23:41;;;;;;;3.13;1.65;;;;;;;;;;5245279;26;20022;-79
2024/04/18 04:26:07;;;;;;;3.63;1.60;;;;;;;;;;5270822;26;20005;-80
2024/04/18 04:28:32;;;;;;;6.25;1.80;;;;;;;;;;5287045;27;20021;-79
2024/04/18 04:30:58;;;;;;;8.55;1.73;;;;;;;;;;5314918;26;19997;-79
2024/04/18 04:33:26;;;;;;;4.75;1.60;;;;;;;;;;5313559;26;20052;-81
2024/04/18 04:35:51;;;;;;;6.17;1.70;;;;;;;;;;5315493;26;20023;-80
2024/04/18 04:38:17;;;;;;;5.68;1.90;;;;;;;;;;5255154;26;20013;-78
2024/04/18 04:40:45;;;;;;;3.65;1.90;;;;;;;;;;5280523;26;20013;-78
2024/04/18 04:43:10;;;;;;;7.47;2.83;;;;;;;;;;5284444;26;20006;-79
2024/04/18 04:45:36;;;;;;;5.85;2.20;;;;;;;;;;5286212;26;20006;-80
2024/04/18 04:48:05;;;;;;;3.85;2.08;;;;;;;;;;5285532;26;20010;-80
2024/04/18 04:50:31;;;;;;;8.65;2.70;;;;;;;;;;5254627;27;20546;-77
2024/04/18 04:53:12;;;;;;;6.22;2.20;;;;;;;;;;5264799;26;20033;-79
2024/04/18 04:55:59;;;;;;;4.30;1.90;;;;;;;;;;5294265;26;20354;-78
2024/04/18 04:58:25;;;;;;;11.50;3.63;;;;;;;;;;5285768;27;20082;-80
2024/04/18 05:00:53;;;;;;;21.50;9.00;;;;;;;;;;5247699;27;20021;-78
2024/04/18 05:03:37;;;;;;;4.03;1.90;;;;;;;;;;5268133;27;20495;-79
2024/04/18 05:06:22;;;;;;;3.78;2.00;;;;;;;;;;5317896;26;20005;-80
2024/04/18 05:09:06;;;;;;;4.97;1.77;;;;;;;;;;5285624;26;20013;-80
2024/04/18 05:11:33;;;;;;;9.55;2.13;;;;;;;;;;5256710;27;20009;-78
2024/04/18 05:13:58;;;;;;;4.18;1.70;;;;;;;;;;5261931;27;20007;-80
2024/04/18 05:16:44;;;;;;;4.63;1.92;;;;;;;;;;5305994;26;20472;-79
2024/04/18 05:19:11;;;;;;;6.32;2.80;;;;;;;;;;5264439;26;20470;-79
2024/04/18 05:21:37;;;;;;;4.78;2.50;;;;;;;;;;5262148;27;20006;-82
2024/04/18 05:24:24;;;;;;;5.57;1.70;;;;;;;;;;5292526;27;20006;-80
2024/04/18 05:26:53;;;;;;;6.05;2.40;;;;;;;;;;5251457;27;20017;-80
2024/04/18 05:32:04;;;;;;;13.60;3.55;;;;;;;;;;5259609;26;20001;-81
2024/04/18 05:34:30;;;;;;;12.65;3.33;;;;;;;;;;5257590;27;20033;-78
2024/04/18 05:36:56;;;;;;;4.82;2.55;;;;;;;;;;5314925;27;20002;-80
2024/04/18 05:39:22;;;;;;;7.80;3.00;;;;;;;;;;5255341;27;20002;-78
2024/04/18 05:41:48;;;;;;;7.45;3.78;;;;;;;;;;5279444;27;20072;-80
2024/04/18 05:44:29;;;;;;;5.55;2.85;;;;;;;;;;5283901;27;20010;-80
2024/04/18 05:46:54;;;;;;;5.15;2.08;;;;;;;;;;5256506;27;20017;-79
2024/04/18 05:49:22;;;;;;;5.75;2.35;;;;;;;;;;5245742;27;20006;-80
2024/04/18 05:51:49;;;;;;;6.10;2.70;;;;;;;;;;5314201;27;20006;-80
2024/04/18 05:54:30;;;;;;;4.97;2.10;;;;;;;;;;5306351;26;20017;-78
2024/04/18 05:57:03;;;;;;;8.10;2.88;;;;;;;;;;5256027;27;20020;-78
2024/04/18 05:59:48;;;;;;;6.13;3.45;;;;;;;;;;5260961;27;20017;-80
2024/04/18 06:02:14;;;;;;;7.28;3.05;;;;;;;;;;5282362;27;20020;-78
2024/04/18 06:04:41;;;;;;;6.80;3.03;;;;;;;;;;5254900;27;20552;-79
2024/04/18 06:07:31;;;;;;;8.43;3.25;;;;;;;;;;5261703;27;20726;-80
2024/04/18 06:09:57;;;;;;;9.23;3.95;;;;;;;;;;5303828;26;19997;-79
2024/04/18 06:12:23;;;;;;;5.45;3.30;;;;;;;;;;5308290;26;20048;-79
2024/04/18 06:14:49;;;;;;;6.82;3.33;;;;;;;;;;5282061;27;20034;-79
2024/04/18 06:17:15;;;;;;;7.60;3.60;;;;;;;;;;5251966;27;20002;-77
2024/04/18 06:19:50;;;;;;;15.70;6.43;;;;;;;;;;5309154;26;20006;-79
2024/04/18 06:22:30;;;;;;;8.30;3.70;;;;;;;;;;5309522;26;20473;-78
2024/04/18 06:25:18;;;;;;;7.10;3.10;;;;;;;;;;5253506;26;20020;-80
2024/04/18 06:27:45;;;;;;;6.80;3.40;;;;;;;;;;5255589;27;20046;-80
2024/04/18 06:30:11;;;;;;;8.40;3.70;;;;;;;;;;5275706;27;20002;-79
2024/04/18 06:32:40;;;;;;;7.95;3.30;;;;;;;;;;5282532;27;20473;-78
2024/04/18 06:35:05;;;;;;;7.63;3.80;;;;;;;;;;5293844;27;20413;-78
2024/04/18 06:37:31;;;;;;;10.45;3.67;;;;;;;;;;5263165;27;20024;-79
2024/04/18 06:39:57;;;;;;;10.27;5.35;;;;;;;;;;5287004;26;20005;-80
2024/04/18 06:42:23;;;;;;;9.07;4.15;;;;;;;;;;5258613;27;20009;-80
2024/04/18 06:44:49;;;;;;;9.35;3.78;;;;;;;;;;5248591;27;20006;-80
2024/04/18 06:47:15;;;;;;;9.85;3.72;;;;;;;;;;5272064;27;20470;-79
2024/04/18 06:50:01;;;;;;;6.75;3.80;;;;;;;;;;5286590;27;20006;-81
2024/04/18 06:52:26;;;;;;;8.23;3.83;;;;;;;;;;5261849;27;20044;-78
2024/04/18 06:54:52;;;;;;;12.00;3.60;;;;;;;;;;5239890;26;20461;-81
2024/04/18 06:57:37;;;;;;;6.70;3.60;;;;;;;;;;5271358;27;20014;-78
2024/04/18 07:00:04;;;;;;;12.23;3.50;;;;;;;;;;5280319;27;20006;-80
2024/04/18 07:02:29;;;;;;;8.70;3.50;;;;;;;;;;5230381;27;20022;-80
2024/04/18 07:05:14;;;;;;;8.35;3.60;;;;;;;;;;5276347;27;20025;-80
2024/04/18 07:07:45;;;;;;;6.53;3.60;;;;;;;;;;5234714;27;20462;-80
2024/04/18 07:10:30;;;;;;;9.27;3.85;;;;;;;;;;5280505;27;20353;-78
2024/04/18 07:12:56;;;;;;;6.53;3.38;;;;;;;;;;5231731;27;20057;-79
2024/04/18 07:15:21;;;;;;;6.57;3.58;;;;;;;;;;5232125;27;19994;-80
2024/04/18 07:18:07;;;;;;;15.07;5.10;;;;;;;;;;5303510;27;20017;-77
2024/04/18 07:20:33;;;;;;;10.98;3.70;;;;;;;;;;5285133;26;20006;-79
2024/04/18 07:23:05;;;;;;;6.38;3.88;;;;;;;;;;5229610;27;20365;-78
2024/04/18 07:25:31;;;;;;;7.10;3.30;;;;;;;;;;5226553;26;20001;-79
2024/04/18 07:27:56;;;;;;;10.18;4.45;;;;;;;;;;5263890;27;19997;-80
2024/04/18 07:30:22;;;;;;;6.03;3.42;;;;;;;;;;5244898;26;20473;-80
2024/04/18 07:32:48;;;;;;;6.28;3.30;;;;;;;;;;5276889;26;20002;-80
2024/04/18 07:35:14;;;;;;;12.93;5.55;;;;;;;;;;5304634;27;20013;-80
2024/04/18 07:37:39;;;;;;;11.93;4.93;;;;;;;;;;5263180;27;20005;-81
2024/04/18 07:40:11;;;;;;;9.82;3.85;;;;;;;;;;5303520;27;20016;-80
2024/04/18 07:42:37;;;;;;;7.55;3.40;;;;;;;;;;5219919;27;20357;-79
2024/04/18 07:45:03;;;;;;;6.03;3.03;;;;;;;;;;5313692;27;20016;-79
2024/04/18 07:47:29;;;;;;;10.93;3.60;;;;;;;;;;5296158;27;20006;-78
2024/04/18 07:49:54;;;;;;;8.35;3.10;;;;;;;;;;5281317;27;20002;-79
2024/04/18 07:52:20;;;;;;;6.97;3.00;;;;;;;;;;5278789;26;20002;-79
2024/04/18 07:54:47;;;;;;;8.20;3.35;;;;;;;;;;5238061;27;20711;-80
2024/04/18 07:57:13;;;;;;;6.43;2.53;;;;;;;;;;5285323;27;20021;-78
2024/04/18 07:59:38;;;;;;;6.10;2.42;;;;;;;;;;5278021;27;20002;-78
2024/04/18 08:02:05;;;;;;;3.42;2.20;;;;;;;;;;5282751;27;20362;-81
2024/04/18 08:04:31;;;;;;;6.53;2.85;;;;;;;;;;5284372;27;20006;-79
2024/04/18 08:06:56;;;;;;;10.48;3.25;;;;;;;;;;5314300;27;20012;-80
2024/04/18 08:09:22;;;;;;;6.53;2.95;;;;;;;;;;5256836;27;20006;-79
2024/04/18 08:11:47;;;;;;;8.30;2.80;;;;;;;;;;5314440;27;20002;-79
2024/04/18 08:14:13;;;;;;;5.93;2.67;;;;;;;;;;5284383;27;20006;-79
2024/04/18 08:16:39;;;;;;;7.10;2.65;;;;;;;;;;5284418;27;20004;-80
2024/04/18 08:19:04;;;;;;;5.63;2.47;;;;;;;;;;5315011;27;20514;-80
2024/04/18 08:21:30;;;;;;;5.90;2.53;;;;;;;;;;5284443;27;20001;-80
2024/04/18 08:23:57;;;;;;;3.88;2.08;;;;;;;;;;5308263;26;20042;-80
2024/04/18 08:26:23;;;;;;;7.93;2.40;;;;;;;;;;5277704;26;20034;-79
2024/04/18 08:28:48;;;;;;;15.40;7.70;;;;;;;;;;5306343;27;20006;-79
2024/04/18 08:31:14;;;;;;;9.30;4.30;;;;;;;;;;5283611;26;20002;-79
2024/04/18 08:33:40;;;;;;;4.63;2.30;;;;;;;;;;5245329;26;20016;-78
2024/04/18 08:36:06;;;;;;;14.07;2.58;;;;;;;;;;5276904;26;20005;-81
2024/04/18 08:38:31;;;;;;;6.68;1.60;;;;;;;;;;5277194;26;20025;-81
2024/04/18 08:41:00;;;;;;;3.92;1.67;;;;;;;;;;5286329;26;20002;-80
2024/04/18 08:43:27;;;;;;;4.03;1.65;;;;;;;;;;5245337;27;20013;-81
2024/04/18 08:45:53;;;;;;;2.88;1.30;;;;;;;;;;5219687;26;20045;-82
2024/04/18 08:48:20;;;;;;;6.07;1.63;;;;;;;;;;5275585;27;20084;-82
2024/04/18 08:50:46;;;;;;;4.03;1.90;;;;;;;;;;5224343;26;20058;-82
2024/04/18 08:53:11;;;;;;;3.75;2.00;;;;;;;;;;5259065;26;20053;-80
2024/04/18 08:55:40;;;;;;;3.38;2.05;;;;;;;;;;5218752;26;20009;-81
2024/04/18 08:58:10;;;;;;;5.63;2.00;;;;;;;;;;5223539;26;20003;-83
2024/04/18 09:00:41;;;;;;;3.58;1.70;;;;;;;;;;5223398;26;20487;-79
2024/04/18 09:03:07;;;;;;;4.55;1.50;;;;;;;;;;5225095;26;20002;-82
2024/04/18 09:05:32;;;;;;;2.58;1.20;;;;;;;;;;5252348;27;20013;-81
2024/04/18 09:07:58;;;;;;;4.50;1.40;;;;;;;;;;5258845;26;19998;-82
2024/04/18 09:10:24;;;;;;;2.88;1.30;;;;;;;;;;5250350;26;20010;-81
2024/04/18 09:12:51;;;;;;;3.53;1.13;;;;;;;;;;5305692;26;20005;-81
2024/04/18 09:15:16;;;;;;;2.97;1.30;;;;;;;;;;5278038;26;20006;-82
2024/04/18 09:17:42;;;;;;;4.10;1.33;;;;;;;;;;5292238;26;20030;-82
2024/04/18 09:20:08;;;;;;;7.78;1.35;;;;;;;;;;5234325;26;20383;-82
2024/04/18 09:22:34;;;;;;;2.92;1.20;;;;;;;;;;5270601;26;20020;-82
2024/04/18 09:24:59;;;;;;;5.90;2.17;;;;;;;;;;5225691;26;20031;-83
2024/04/18 09:27:25;;;;;;;4.63;1.98;;;;;;;;;;5198260;26;20485;-83
2024/04/18 09:29:51;;;;;;;6.38;1.50;;;;;;;;;;5235479;27;20016;-83
2024/04/18 09:32:17;;;;;;;4.88;1.40;;;;;;;;;;5282459;26;20027;-82
2024/04/18 09:34:47;;;;;;;3.63;1.70;;;;;;;;;;5279047;26;20009;-81
2024/04/18 09:37:15;;;;;;;5.05;2.03;;;;;;;;;;5242285;27;20006;-83
2024/04/18 09:39:42;;;;;;;3.65;1.52;;;;;;;;;;5255642;26;20498;-81
2024/04/18 09:42:12;;;;;;;2.78;1.40;;;;;;;;;;5217214;27;20060;-83
2024/04/18 09:44:42;;;;;;;5.20;1.92;;;;;;;;;;5240227;27;20014;-82
2024/04/18 09:47:09;;;;;;;4.22;1.80;;;;;;;;;;5252649;26;20002;-80
2024/04/18 09:49:39;;;;;;;3.60;1.95;;;;;;;;;;5277425;27;20005;-81
2024/04/18 09:52:06;;;;;;;2.65;1.33;;;;;;;;;;5247875;26;20003;-82
2024/04/18 09:54:33;;;;;;;6.13;1.42;;;;;;;;;;5304780;26;20056;-82
2024/04/18 09:56:59;;;;;;;4.55;1.48;;;;;;;;;;5247102;26;20020;-82
2024/04/18 09:59:26;;;;;;;4.53;1.63;;;;;;;;;;5242672;26;20007;-82
2024/04/18 10:01:51;;;;;;;5.03;1.52;;;;;;;;;;5272113;26;20009;-82
2024/04/18 10:04:17;;;;;;;3.13;1.02;;;;;;;;;;5233089;27;20351;-82
2024/04/18 10:06:45;;;;;;;2.47;1.00;;;;;;;;;;5276358;27;20010;-82
2024/04/18 10:09:14;;;;;;;3.03;1.10;;;;;;;;;;5269307;26;21525;-80
2024/04/18 10:11:40;;;;;;;2.30;1.33;;;;;;;;;;5271822;26;20335;-81
2024/04/18 10:14:06;;;;;;;3.95;1.40;;;;;;;;;;5225660;26;20013;-83
2024/04/18 10:16:32;;;;;;;4.60;0.98;;;;;;;;;;5254882;27;20032;-80
2024/04/18 10:19:08;;;;;;;3.35;1.52;;;;;;;;;;5231954;26;20005;-81
2024/04/18 10:21:34;;;;;;;2.80;1.08;;;;;;;;;;5283552;27;20479;-82
2024/04/18 10:24:04;;;;;;;5.60;1.17;;;;;;;;;;5256372;26;20016;-81
2024/04/18 10:26:31;;;;;;;3.03;0.70;;;;;;;;;;5257736;26;20357;-81
2024/04/18 10:28:58;;;;;;;2.58;0.95;;;;;;;;;;5287645;26;20060;-80
2024/04/18 10:31:27;;;;;;;4.82;2.65;;;;;;;;;;5280537;27;20546;-82
2024/04/18 10:33:52;;;;;;;;;;;;;;;;;;5222864;26;20006;-83
2024/04/18 10:36:18;;;;;;;2.30;0.90;;;;;;;;;;5320905;26;19977;-82
2024/04/18 10:38:45;;;;;;;3.13;1.00;;;;;;;;;;5237818;27;20005;-82
2024/04/18 10:41:12;;;;;;;3.63;1.30;;;;;;;;;;5267946;26;20021;-83
2024/04/18 10:43:39;;;;;;;2.85;1.30;;;;;;;;;;5272282;27;20004;-80
2024/04/18 10:46:12;;;;;;;4.63;1.50;;;;;;;;;;5268306;27;20006;-81
2024/04/18 10:48:38;;;;;;;2.30;1.10;;;;;;;;;;5236999;27;20084;-81
2024/04/18 10:51:04;;;;;;;2.10;0.95;;;;;;;;;;5254898;27;20003;-82
2024/04/18 10:53:35;;;;;;;4.05;0.90;;;;;;;;;;5257089;27;20033;-83
2024/04/18 10:56:01;;;;;;;2.55;1.08;;;;;;;;;;5240966;26;20006;-79
2024/04/18 10:58:27;;;;;;;3.22;1.25;;;;;;;;;;5245787;27;20009;-80
2024/04/18 11:00:58;;;;;;;1.95;1.05;;;;;;;;;;5233945;27;20001;-80
2024/04/18 11:03:24;;;;;;;2.65;1.02;;;;;;;;;;5262724;27;20048;-81
2024/04/18 11:05:49;;;;;;;2.70;0.90;;;;;;;;;;5255477;27;20472;-80
2024/04/18 11:08:21;;;;;;;2.58;0.82;;;;;;;;;;5251537;27;20028;-82
2024/04/18 11:10:47;;;;;;;2.63;1.00;;;;;;;;;;5258123;27;20006;-79
2024/04/18 11:13:16;;;;;;;1.00;0.70;;;;;;;;;;5317511;26;20076;-81
2024/04/18 11:15:42;;;;;;;2.13;0.93;;;;;;;;;;5278142;27;20011;-77
2024/04/18 11:18:07;;;;;;;2.05;1.10;;;;;;;;;;5312735;26;20014;-80
2024/04/18 11:20:35;;;;;;;2.65;1.10;;;;;;;;;;5285870;27;20038;-81
2024/04/18 11:23:05;;;;;;;3.03;1.30;;;;;;;;;;5253966;27;20470;-80
2024/04/18 11:25:31;;;;;;;3.47;1.08;;;;;;;;;;5297326;27;20018;-79
2024/04/18 11:28:06;;;;;;;2.80;1.23;;;;;;;;;;5255189;26;20018;-79
2024/04/18 11:30:33;;;;;;;3.88;1.33;;;;;;;;;;5263878;27;20006;-80
2024/04/18 11:32:59;;;;;;;2.45;1.00;;;;;;;;;;5278913;27;20048;-79
2024/04/18 11:35:25;;;;;;;4.78;1.35;;;;;;;;;;5254395;27;20010;-80
2024/04/18 11:37:51;;;;;;;5.07;1.10;;;;;;;;;;5306262;27;20026;-80
2024/04/18 11:40:17;;;;;;;2.55;0.98;;;;;;;;;;5252387;26;20004;-81
2024/04/18 11:42:43;;;;;;;5.10;1.88;;;;;;;;;;5223266;27;20018;-80
2024/04/18 11:45:09;;;;;;;5.97;1.35;;;;;;;;;;5243039;27;20461;-80
2024/04/18 11:47:36;;;;;;;2.10;0.80;;;;;;;;;;5290724;26;20063;-79
2024/04/18 11:50:08;;;;;;;2.20;0.90;;;;;;;;;;5298734;26;20062;-80
2024/04/18 11:52:34;;;;;;;2.60;0.95;;;;;;;;;;5281970;27;20021;-77
2024/04/18 11:55:01;;;;;;;3.40;0.98;;;;;;;;;;5313067;26;20026;-80
2024/04/18 11:57:36;;;;;;;2.67;1.20;;;;;;;;;;5246214;27;20010;-79
2024/04/18 12:00:02;;;;;;;2.70;1.25;;;;;;;;;;5298000;26;20085;-79
2024/04/18 12:02:48;;;;;;;3.40;1.17;;;;;;;;;;5248489;27;20544;-79
2024/04/18 12:05:20;;;;;;;2.65;0.90;;;;;;;;;;5306758;26;20105;-79
2024/04/18 12:07:48;;;;;;;2.35;1.00;;;;;;;;;;5245550;26;20046;-79
2024/04/18 12:10:28;;;;;;;5.25;2.35;;;;;;;;;;5238444;26;20006;-79
2024/04/18 12:13:02;;;;;;;3.72;1.08;;;;;;;;;;5277342;27;20011;-80
2024/04/18 12:15:27;;;;;;;2.17;0.80;;;;;;;;;;5250152;27;20016;-79
2024/04/18 12:17:53;;;;;;;2.28;0.85;;;;;;;;;;5261860;26;20005;-78
2024/04/18 12:20:19;;;;;;;1.48;0.60;;;;;;;;;;5302234;27;20002;-79
2024/04/18 12:22:45;;;;;;;1.88;0.80;;;;;;;;;;5257367;26;20021;-79
2024/04/18 12:25:15;;;;;;;3.67;0.82;;;;;;;;;;5317128;26;20008;-80
2024/04/18 12:27:40;;;;;;;3.22;0.82;;;;;;;;;;5294984;26;20396;-80
2024/04/18 12:30:26;;;;;;;3.78;0.73;;;;;;;;;;5300760;26;20013;-81
2024/04/18 12:33:12;;;;;;;3.38;1.15;;;;;;;;;;5279029;27;20467;-80
2024/04/18 12:35:38;;;;;;;5.70;1.10;;;;;;;;;;5236572;27;20003;-80
2024/04/18 12:38:05;;;;;;;2.72;0.90;;;;;;;;;;5234950;27;20017;-77
2024/04/18 12:40:41;;;;;;;2.08;0.90;;;;;;;;;;5290672;27;20006;-82
2024/04/18 12:43:17;;;;;;;3.58;0.90;;;;;;;;;;5269346;27;20006;-80
2024/04/18 12:45:54;;;;;;;2.53;1.00;;;;;;;;;;5244601;26;20009;-80
2024/04/18 12:48:39;;;;;;;3.13;1.10;;;;;;;;;;5282003;27;20349;-79
2024/04/18 12:51:05;;;;;;;4.85;1.25;;;;;;;;;;5279035;27;20024;-81
2024/04/18 12:53:40;;;;;;;4.95;0.85;;;;;;;;;;5254562;27;20092;-81
2024/04/18 12:56:06;;;;;;;1.88;0.80;;;;;;;;;;5226142;27;20022;-81
2024/04/18 12:58:32;;;;;;;4.60;1.05;;;;;;;;;;5231276;27;20018;-80
2024/04/18 13:01:10;;;;;;;2.95;0.77;;;;;;;;;;5294529;27;20005;-79
2024/04/18 13:03:37;;;;;;;5.50;1.00;;;;;;;;;;5228976;27;20141;-80
2024/04/18 13:06:22;;;;;;;1.52;0.80;;;;;;;;;;5266749;27;20689;-79
2024/04/18 13:08:47;;;;;;;4.63;0.80;;;;;;;;;;5291310;27;20005;-79
2024/04/18 13:11:33;;;;;;;4.43;1.60;;;;;;;;;;5261746;27;20042;-81
2024/04/18 13:14:04;;;;;;;4.50;1.30;;;;;;;;;;5300522;26;20028;-81
2024/04/18 13:16:33;;;;;;;4.45;0.88;;;;;;;;;;5233777;27;20002;-80
2024/04/18 13:19:11;;;;;;;5.30;1.48;;;;;;;;;;5252596;26;20007;-81
2024/04/18 13:21:39;;;;;;;4.20;1.60;;;;;;;;;;5285105;27;20048;-81
2024/04/18 13:24:10;;;;;;;;;;;;;;;;;;5235967;27;20013;-82
2024/04/18 13:26:51;;;;;;;2.80;1.00;;;;;;;;;;5243713;26;19927;-83
2024/04/18 13:29:18;;;;;;;3.08;1.00;;;;;;;;;;5240263;27;20016;-82
2024/04/18 13:31:47;;;;;;;4.88;1.70;;;;;;;;;;5235353;26;20018;-81
2024/04/18 13:34:19;;;;;;;4.72;1.60;;;;;;;;;;5286498;26;20002;-81
2024/04/18 13:36:45;;;;;;;7.90;3.33;;;;;;;;;;5253813;26;20064;-82
2024/04/18 13:39:11;;;;;;;3.40;1.33;;;;;;;;;;5284049;27;20041;-82
2024/04/18 13:41:38;;;;;;;1.70;0.70;;;;;;;;;;5224161;27;20006;-83
2024/04/18 13:44:17;;;;;;;1.33;0.60;;;;;;;;;;5277058;27;19999;-82
2024/04/18 13:46:44;;;;;;;6.97;2.13;;;;;;;;;;5227659;26;20034;-83
2024/04/18 13:49:10;;;;;;;2.42;0.95;;;;;;;;;;5230928;26;20002;-81
2024/04/18 13:51:51;;;;;;;2.83;1.02;;;;;;;;;;5275638;26;20002;-82
2024/04/18 13:54:34;;;;;;;1.98;0.80;;;;;;;;;;5252495;26;20006;-82
2024/04/18 13:57:00;;;;;;;1.67;0.63;;;;;;;;;;5282280;26;20010;-83
2024/04/18 13:59:42;;;;;;;1.27;0.70;;;;;;;;;;5254724;26;20103;-83
2024/04/18 14:02:28;;;;;;;2.63;0.90;;;;;;;;;;5275286;26;20011;-83
2024/04/18 14:05:16;;;;;;;3.60;0.60;;;;;;;;;;5264480;26;20016;-83
2024/04/18 14:08:01;;;;;;;1.88;0.68;;;;;;;;;;5260562;26;20013;-83
2024/04/18 14:10:26;;;;;;;3.38;0.75;;;;;;;;;;5264604;26;20006;-81
2024/04/18 14:13:11;;;;;;;4.85;1.15;;;;;;;;;;5252261;26;20005;-83
2024/04/18 14:18:51;;;;;;;3.78;0.82;;;;;;;;;;5307625;26;20001;-82
2024/04/18 14:21:38;;;;;;;1.33;0.60;;;;;;;;;;5280667;26;20017;-82
2024/04/18 14:24:04;;;;;;;3.05;0.75;;;;;;;;;;5228770;26;20076;-83
2024/04/18 14:26:30;;;;;;;3.25;0.90;;;;;;;;;;5277803;26;20009;-82
2024/04/18 14:29:17;;;;;;;3.78;1.10;;;;;;;;;;5283580;26;20002;-82
2024/04/18 14:31:59;;;;;;;2.80;1.00;;;;;;;;;;5250020;26;20006;-82
2024/04/18 14:34:45;;;;;;;2.55;0.98;;;;;;;;;;5258858;26;20343;-82
2024/04/18 14:37:12;;;;;;;2.60;0.80;;;;;;;;;;5253053;26;20027;-82
2024/04/18 14:39:37;;;;;;;2.53;0.60;;;;;;;;;;5245132;26;20056;-82
2024/04/18 14:42:06;;;;;;;4.18;0.80;;;;;;;;;;5229258;26;20017;-81
2024/04/18 14:44:35;;;;;;;2.72;0.93;;;;;;;;;;5234593;27;20003;-84
2024/04/18 14:47:13;;;;;;;;;;;;;;;;;;5296344;27;20009;-83
2024/04/18 14:49:54;;;;;;;1.48;0.70;;;;;;;;;;5301865;27;19919;-83
2024/04/18 14:52:36;;;;;;;2.33;0.80;;;;;;;;;;5250814;26;20010;-83
2024/04/18 14:55:22;;;;;;;1.85;1.00;;;;;;;;;;5269484;27;20009;-82
2024/04/18 14:57:48;;;;;;;4.95;0.98;;;;;;;;;;5260241;27;20012;-82
2024/04/18 15:00:18;;;;;;;6.45;1.10;;;;;;;;;;5270075;27;20008;-80
2024/04/18 15:02:43;;;;;;;17.55;1.30;;;;;;;;;;5296057;27;20005;-81
2024/04/18 15:05:29;;;;;;;1.48;0.55;;;;;;;;;;5292041;27;20010;-82
2024/04/18 15:08:01;;;;;;;2.92;0.90;;;;;;;;;;5237163;27;20017;-81
2024/04/18 15:10:45;;;;;;;4.32;0.90;;;;;;;;;;5268705;27;20532;-82